createdAt,value
2023-01-28T00:01:44.583Z,0.26
2023-01-28T00:04:12.254Z,0.26
2023-01-28T00:06:40.207Z,0.27
2023-01-28T00:09:08.347Z,0.31
2023-01-28T00:11:36.217Z,0.37
2023-01-28T00:14:05.775Z,0.47
2023-01-28T00:16:33.513Z,0.53
2023-01-28T00:19:01.210Z,0.57
2023-01-28T00:21:28.929Z,0.56
2023-01-28T00:23:58.120Z,0.56
2023-01-28T00:26:29.226Z,0.66
2023-01-28T00:28:56.974Z,0.67
2023-01-28T00:31:26.826Z,0.74
2023-01-28T00:33:56.220Z,0.73
2023-01-28T00:36:26.143Z,0.73
2023-01-28T00:38:58.950Z,0.73
2023-01-28T00:41:29.447Z,0.76
2023-01-28T00:43:57.540Z,0.75
2023-01-28T00:46:27.645Z,0.77
2023-01-28T00:48:55.683Z,0.78
2023-01-28T00:51:23.699Z,0.76
2023-01-28T00:53:51.922Z,0.75
2023-01-28T00:56:20.843Z,0.79
2023-01-28T00:58:49.393Z,0.81
2023-01-28T01:01:23.470Z,0.78
2023-01-28T01:03:58.679Z,0.77
2023-01-28T01:06:26.485Z,0.76
2023-01-28T01:08:54.189Z,0.71
2023-01-28T01:11:21.905Z,0.66
2023-01-28T01:13:58.279Z,0.72
2023-01-28T01:16:29.077Z,0.69
2023-01-28T01:18:57.539Z,0.69
2023-01-28T01:21:28.453Z,0.73
2023-01-28T01:23:56.181Z,0.77
2023-01-28T01:26:25.054Z,0.77
2023-01-28T01:28:53.505Z,0.71
2023-01-28T01:31:23.472Z,0.71
2023-01-28T01:33:53.037Z,0.74
2023-01-28T01:36:22.827Z,0.78
2023-01-28T01:38:55.628Z,0.79
2023-01-28T01:41:27.677Z,0.72
2023-01-28T01:44:04.059Z,0.69
2023-01-28T01:46:44.901Z,0.64
2023-01-28T01:49:27.863Z,0.56
2023-01-28T01:52:03.532Z,0.55
2023-01-28T01:54:33.432Z,0.54
2023-01-28T01:57:02.374Z,0.57
2023-01-28T01:59:33.365Z,0.60
2023-01-28T02:02:08.384Z,0.60
2023-01-28T02:04:42.471Z,0.55
2023-01-28T02:07:13.599Z,0.52
2023-01-28T02:09:42.695Z,0.50
2023-01-28T02:12:15.507Z,0.51
2023-01-28T02:14:53.663Z,0.47
2023-01-28T02:17:22.998Z,0.38
2023-01-28T02:20:07.957Z,0.39
2023-01-28T02:22:56.574Z,0.39
2023-01-28T02:25:50.141Z,0.44
2023-01-28T02:28:23.740Z,0.43
2023-01-28T02:30:54.488Z,0.44
2023-01-28T02:33:40.641Z,0.43
2023-01-28T02:36:23.907Z,0.42
2023-01-28T02:38:54.085Z,0.46
2023-01-28T02:41:32.621Z,0.45
2023-01-28T02:44:04.311Z,0.40
2023-01-28T02:46:50.498Z,0.37
2023-01-28T02:49:53.434Z,0.34
2023-01-28T02:52:43.647Z,0.33
2023-01-28T02:55:27.128Z,0.32
2023-01-28T02:58:04.783Z,0.34
2023-01-28T03:00:55.726Z,0.36
2023-01-28T03:03:31.133Z,0.40
2023-01-28T03:06:09.769Z,0.42
2023-01-28T03:09:03.977Z,0.47
2023-01-28T03:11:53.508Z,0.51
2023-01-28T03:14:40.836Z,0.47
2023-01-28T03:17:34.138Z,0.43
2023-01-28T03:20:20.412Z,0.40
2023-01-28T03:23:13.975Z,0.40
2023-01-28T03:26:04.013Z,0.39
2023-01-28T03:28:53.301Z,0.40
2023-01-28T03:31:42.123Z,0.45
2023-01-28T03:34:30.146Z,0.49
2023-01-28T03:36:58.212Z,0.52
2023-01-28T03:39:31.671Z,0.49
2023-01-28T03:42:09.987Z,0.44
2023-01-28T03:44:50.820Z,0.37
2023-01-28T03:47:20.095Z,0.36
2023-01-28T03:49:52.561Z,0.32
2023-01-28T03:52:22.711Z,0.28
2023-01-28T03:54:51.277Z,0.26
2023-01-28T03:57:21.140Z,0.31
2023-01-28T03:59:50.969Z,0.26
2023-01-28T04:02:19.795Z,0.24
2023-01-28T04:04:47.682Z,0.23
2023-01-28T04:07:16.548Z,0.28
2023-01-28T04:09:44.733Z,0.27
2023-01-28T04:12:13.136Z,0.27
2023-01-28T04:14:41.287Z,0.25
2023-01-28T04:17:11.511Z,0.21
2023-01-28T04:19:39.513Z,0.23
2023-01-28T04:22:08.678Z,0.25
2023-01-28T04:24:36.437Z,0.23
2023-01-28T04:27:04.191Z,0.20
2023-01-28T04:29:32.796Z,0.19
2023-01-28T04:32:00.502Z,0.15
2023-01-28T04:34:28.147Z,0.16
2023-01-28T04:36:55.858Z,0.18
2023-01-28T04:39:23.607Z,0.20
2023-01-28T04:41:51.278Z,0.21
2023-01-28T04:44:18.977Z,0.21
2023-01-28T04:46:46.699Z,0.20
2023-01-28T04:49:14.377Z,0.15
2023-01-28T04:51:42.080Z,0.15
2023-01-28T04:54:09.837Z,0.13
2023-01-28T04:56:37.545Z,0.11
2023-01-28T04:59:05.214Z,0.11
2023-01-28T05:01:32.906Z,0.11
2023-01-28T05:04:00.876Z,0.12
2023-01-28T05:06:28.603Z,0.14
2023-01-28T05:08:56.280Z,0.13
2023-01-28T05:11:23.953Z,0.14
2023-01-28T05:13:51.898Z,0.13
2023-01-28T05:16:19.671Z,0.11
2023-01-28T05:18:49.172Z,0.11
2023-01-28T05:21:16.949Z,0.13
2023-01-28T05:23:44.990Z,0.09
2023-01-28T05:26:12.622Z,0.09
2023-01-28T05:28:40.230Z,0.06
2023-01-28T05:31:08.707Z,0.06
2023-01-28T05:33:36.374Z,0.10
2023-01-28T05:36:04.245Z,0.09
2023-01-28T05:38:31.897Z,0.13
2023-01-28T05:40:59.589Z,0.17
2023-01-28T05:43:27.208Z,0.17
2023-01-28T05:45:54.924Z,0.16
2023-01-28T05:48:22.719Z,0.18
2023-01-28T05:50:51.212Z,0.17
2023-01-28T05:53:19.077Z,0.16
2023-01-28T05:55:50.916Z,0.17
2023-01-28T05:58:18.969Z,0.17
2023-01-28T06:00:46.756Z,0.16
2023-01-28T06:03:14.434Z,0.11
2023-01-28T06:05:42.129Z,0.11
2023-01-28T06:08:09.989Z,0.10
2023-01-28T06:10:37.731Z,0.11
2023-01-28T06:13:05.432Z,0.10
2023-01-28T06:15:33.726Z,0.09
2023-01-28T06:18:01.486Z,0.09
2023-01-28T06:20:29.303Z,0.08
2023-01-28T06:22:57.045Z,0.09
2023-01-28T06:25:24.722Z,0.07
2023-01-28T06:27:52.490Z,0.11
2023-01-28T06:30:20.735Z,0.13
2023-01-28T06:32:48.459Z,0.13
2023-01-28T06:35:16.300Z,0.12
2023-01-28T06:37:44.330Z,0.11
2023-01-28T06:40:13.113Z,0.11
2023-01-28T06:42:41.182Z,0.09
2023-01-28T06:45:09.406Z,0.08
2023-01-28T06:47:37.153Z,0.07
2023-01-28T06:50:04.981Z,0.08
2023-01-28T06:52:32.734Z,0.06
2023-01-28T06:55:00.444Z,0.06
2023-01-28T06:57:28.083Z,0.05
2023-01-28T06:59:55.788Z,0.03
2023-01-28T07:02:24.523Z,0.03
2023-01-28T07:04:53.687Z,0.08
2023-01-28T07:07:21.419Z,0.08
2023-01-28T07:09:49.056Z,0.10
2023-01-28T07:12:16.820Z,0.11
2023-01-28T07:14:44.422Z,0.14
2023-01-28T07:17:12.332Z,0.13
2023-01-28T07:19:40.055Z,0.13
2023-01-28T07:22:07.835Z,0.15
2023-01-28T07:24:35.987Z,0.14
2023-01-28T07:27:05.707Z,0.13
2023-01-28T07:29:33.478Z,0.12
2023-01-28T07:32:01.197Z,0.18
2023-01-28T07:34:28.994Z,0.22
2023-01-28T07:36:57.549Z,0.20
2023-01-28T07:39:25.426Z,0.29
2023-01-28T07:41:53.715Z,0.38
2023-01-28T07:44:21.423Z,0.44
2023-01-28T07:46:49.110Z,0.47
2023-01-28T07:49:16.739Z,0.49
2023-01-28T07:51:44.410Z,0.49
2023-01-28T07:54:12.097Z,0.52
2023-01-28T07:56:39.982Z,0.57
2023-01-28T07:59:07.638Z,0.60
2023-01-28T08:01:35.341Z,0.62
2023-01-28T08:04:03.096Z,0.62
2023-01-28T08:06:30.982Z,0.62
2023-01-28T08:08:58.686Z,0.58
2023-01-28T08:11:26.347Z,0.55
2023-01-28T08:13:53.980Z,0.57
2023-01-28T08:16:21.652Z,0.54
2023-01-28T08:18:49.296Z,0.52
2023-01-28T08:21:17.060Z,0.56
2023-01-28T08:23:44.770Z,0.59
2023-01-28T08:26:12.540Z,0.55
2023-01-28T08:28:40.373Z,0.59
2023-01-28T08:31:08.060Z,0.61
2023-01-28T08:33:35.810Z,0.67
2023-01-28T08:36:05.359Z,0.66
2023-01-28T08:38:33.403Z,0.66
2023-01-28T08:41:01.227Z,0.65
2023-01-28T08:43:28.871Z,0.71
2023-01-28T08:45:56.537Z,0.69
2023-01-28T08:48:24.248Z,0.75
2023-01-28T08:50:52.055Z,0.78
2023-01-28T08:53:21.628Z,0.80
2023-01-28T08:55:49.507Z,0.82
2023-01-28T08:58:19.359Z,0.82
2023-01-28T09:00:48.503Z,0.81
2023-01-28T09:03:16.445Z,0.77
2023-01-28T09:05:44.692Z,0.79
2023-01-28T09:08:15.041Z,0.78
2023-01-28T09:10:43.452Z,0.80
2023-01-28T09:13:13.920Z,0.81
2023-01-28T09:15:42.480Z,0.87
2023-01-28T09:18:10.394Z,0.85
2023-01-28T09:20:38.844Z,0.85
2023-01-28T09:23:07.136Z,0.88
2023-01-28T09:25:37.185Z,0.90
2023-01-28T09:28:05.690Z,0.94
2023-01-28T09:30:35.976Z,0.94
2023-01-28T09:33:04.776Z,0.91
2023-01-28T09:35:32.556Z,0.81
2023-01-28T09:38:01.268Z,0.80
2023-01-28T09:40:59.078Z,0.79
2023-01-28T09:44:02.848Z,0.77
2023-01-28T09:46:36.975Z,0.79
2023-01-28T09:49:18.862Z,0.85
2023-01-28T09:51:54.760Z,0.95
2023-01-28T09:54:41.441Z,1.05
2023-01-28T09:57:18.229Z,1.10
2023-01-28T09:59:45.934Z,1.17
2023-01-28T10:02:27.158Z,1.22
2023-01-28T10:05:27.064Z,1.29
2023-01-28T10:08:00.418Z,1.33
2023-01-28T10:10:34.575Z,1.44
2023-01-28T10:13:11.617Z,1.90
2023-01-28T10:16:00.633Z,2.06
2023-01-28T10:18:37.995Z,2.17
2023-01-28T10:21:14.437Z,2.23
2023-01-28T10:24:02.859Z,2.27
2023-01-28T10:26:36.839Z,2.29
2023-01-28T10:29:23.154Z,2.27
2023-01-28T10:32:00.827Z,2.27
2023-01-28T10:34:28.605Z,2.29
2023-01-28T10:36:58.844Z,2.31
2023-01-28T10:39:27.927Z,2.37
2023-01-28T10:41:58.501Z,2.40
2023-01-28T10:44:48.723Z,2.42
2023-01-28T10:47:30.920Z,2.35
2023-01-28T10:50:03.619Z,2.31
2023-01-28T10:52:31.294Z,2.26
2023-01-28T10:55:07.613Z,2.24
2023-01-28T10:57:35.992Z,2.24
2023-01-28T11:00:26.930Z,2.24
2023-01-28T11:02:56.111Z,2.23
2023-01-28T11:05:29.746Z,2.22
2023-01-28T11:08:14.446Z,2.21
2023-01-28T11:10:43.242Z,2.12
2023-01-28T11:13:29.134Z,2.13
2023-01-28T11:16:04.677Z,2.08
2023-01-28T11:18:36.349Z,2.08
2023-01-28T11:21:07.593Z,2.07
2023-01-28T11:23:40.482Z,2.08
2023-01-28T11:26:20.704Z,2.04
2023-01-28T11:28:48.758Z,1.97
2023-01-28T11:31:18.441Z,1.95
2023-01-28T11:34:00.772Z,1.91
2023-01-28T11:36:30.981Z,1.87
2023-01-28T11:39:03.542Z,1.82
2023-01-28T11:41:36.752Z,1.83
2023-01-28T11:44:27.343Z,1.83
2023-01-28T11:47:04.195Z,1.78
2023-01-28T11:49:31.844Z,1.78
2023-01-28T11:52:18.802Z,1.79
2023-01-28T11:55:08.490Z,1.77
2023-01-28T11:57:53.476Z,1.83
2023-01-28T12:00:31.204Z,1.84
2023-01-28T12:03:26.022Z,1.86
2023-01-28T12:05:58.744Z,1.89
2023-01-28T12:08:35.710Z,1.90
2023-01-28T12:11:06.407Z,1.89
2023-01-28T12:13:45.591Z,1.83
2023-01-28T12:16:19.476Z,1.82
2023-01-28T12:19:09.070Z,1.76
2023-01-28T12:21:48.675Z,1.78
2023-01-28T12:24:27.602Z,1.78
2023-01-28T12:27:27.161Z,1.81
2023-01-28T12:30:22.253Z,1.78
2023-01-28T12:33:17.745Z,1.74
2023-01-28T12:35:54.571Z,1.75
2023-01-28T12:38:36.780Z,1.77
2023-01-28T12:41:19.608Z,1.79
2023-01-28T12:43:52.891Z,1.75
2023-01-28T12:46:30.702Z,1.74
2023-01-28T12:49:26.496Z,1.76
2023-01-28T12:52:12.010Z,1.71
2023-01-28T12:54:54.064Z,1.69
2023-01-28T12:57:27.555Z,1.65
2023-01-28T13:00:33.221Z,1.68
2023-01-28T13:03:24.415Z,1.70
2023-01-28T13:05:56.802Z,1.72
2023-01-28T13:08:31.249Z,1.72
2023-01-28T13:11:01.065Z,1.71
2023-01-28T13:13:33.528Z,1.73
2023-01-28T13:16:02.776Z,1.70
2023-01-28T13:18:49.111Z,1.71
2023-01-28T13:21:34.681Z,1.68
2023-01-28T13:24:10.675Z,1.74
2023-01-28T13:26:54.304Z,1.78
2023-01-28T13:29:35.054Z,1.86
2023-01-28T13:32:24.492Z,1.87
2023-01-28T13:35:07.175Z,1.89
2023-01-28T13:37:36.702Z,1.86
2023-01-28T13:40:24.856Z,1.85
2023-01-28T13:43:06.277Z,1.86
2023-01-28T13:45:35.187Z,1.88
2023-01-28T13:48:41.505Z,1.87
2023-01-28T13:51:29.969Z,1.87
2023-01-28T13:54:08.485Z,1.89
2023-01-28T13:56:50.592Z,1.86
2023-01-28T13:59:33.352Z,1.88
2023-01-28T14:02:06.835Z,1.90
2023-01-28T14:04:48.141Z,1.87
2023-01-28T14:07:46.856Z,1.81
2023-01-28T14:10:45.363Z,1.75
2023-01-28T14:13:18.715Z,1.75
2023-01-28T14:16:21.828Z,1.76
2023-01-28T14:18:51.147Z,1.72
2023-01-28T14:21:22.275Z,1.71
2023-01-28T14:23:56.126Z,1.72
2023-01-28T14:26:49.592Z,1.72
2023-01-28T14:29:37.097Z,1.72
2023-01-28T14:32:23.754Z,1.69
2023-01-28T14:34:51.747Z,1.70
2023-01-28T14:37:27.452Z,1.70
2023-01-28T14:39:59.860Z,1.71
2023-01-28T14:42:33.864Z,1.74
2023-01-28T14:45:19.973Z,1.73
2023-01-28T14:47:55.957Z,1.72
2023-01-28T14:50:41.210Z,1.75
2023-01-28T14:53:20.795Z,1.72
2023-01-28T14:56:04.077Z,1.71
2023-01-28T14:58:37.465Z,1.75
2023-01-28T15:01:05.307Z,1.72
2023-01-28T15:03:33.722Z,1.74
2023-01-28T15:06:13.890Z,1.74
2023-01-28T15:08:41.784Z,1.78
2023-01-28T15:11:29.642Z,1.81
2023-01-28T15:14:00.373Z,1.84
2023-01-28T15:16:31.399Z,1.86
2023-01-28T15:19:02.536Z,1.83
2023-01-28T15:21:31.699Z,1.85
2023-01-28T15:24:02.022Z,1.86
2023-01-28T15:26:35.396Z,1.89
2023-01-28T15:29:03.117Z,1.87
2023-01-28T15:31:39.974Z,1.87
2023-01-28T15:34:16.616Z,1.89
2023-01-28T15:36:44.819Z,1.87
2023-01-28T15:39:17.702Z,1.85
2023-01-28T15:41:50.722Z,1.82
2023-01-28T15:44:30.171Z,1.79
2023-01-28T15:47:00.347Z,1.76
2023-01-28T15:49:37.962Z,1.74
2023-01-28T15:52:05.918Z,1.70
2023-01-28T15:54:37.923Z,1.67
2023-01-28T15:57:28.494Z,1.66
2023-01-28T16:00:08.142Z,1.68
2023-01-28T16:02:51.197Z,1.64
2023-01-28T16:05:54.817Z,1.63
2023-01-28T16:08:40.546Z,1.61
2023-01-28T16:11:10.732Z,1.59
2023-01-28T16:13:44.200Z,1.58
2023-01-28T16:16:12.869Z,1.56
2023-01-28T16:18:52.844Z,1.58
2023-01-28T16:21:35.713Z,1.57
2023-01-28T16:24:21.365Z,1.59
2023-01-28T16:26:58.510Z,1.53
2023-01-28T16:29:30.826Z,1.54
2023-01-28T16:32:00.917Z,1.53
2023-01-28T16:34:28.791Z,1.53
2023-01-28T16:37:00.514Z,1.55
2023-01-28T16:39:28.482Z,1.54
2023-01-28T16:41:58.250Z,1.52
2023-01-28T16:44:25.967Z,1.52
2023-01-28T16:46:53.808Z,1.51
2023-01-28T16:49:21.602Z,1.55
2023-01-28T16:51:49.383Z,1.55
2023-01-28T16:54:18.480Z,1.53
2023-01-28T16:56:47.076Z,1.56
2023-01-28T16:59:16.921Z,1.54
2023-01-28T17:01:45.483Z,1.52
2023-01-28T17:04:13.701Z,1.53
2023-01-28T17:06:45.760Z,1.53
2023-01-28T17:09:14.780Z,1.55
2023-01-28T17:11:42.768Z,1.56
2023-01-28T17:14:11.795Z,1.57
2023-01-28T17:16:39.736Z,1.54
2023-01-28T17:19:07.817Z,1.51
2023-01-28T17:21:35.610Z,1.47
2023-01-28T17:24:04.121Z,1.43
2023-01-28T17:26:33.118Z,1.34
2023-01-28T17:29:00.762Z,1.31
2023-01-28T17:31:28.886Z,1.29
2023-01-28T17:33:59.187Z,1.23
2023-01-28T17:36:28.120Z,1.20
2023-01-28T17:38:56.395Z,1.21
2023-01-28T17:41:24.230Z,1.18
2023-01-28T17:43:53.560Z,1.16
2023-01-28T17:46:22.955Z,1.13
2023-01-28T17:48:51.084Z,1.14
2023-01-28T17:51:19.977Z,1.16
2023-01-28T17:53:52.523Z,1.15
2023-01-28T17:56:26.992Z,1.13
2023-01-28T17:58:56.745Z,1.09
2023-01-28T18:01:26.291Z,1.09
2023-01-28T18:03:54.244Z,1.10
2023-01-28T18:06:22.311Z,1.11
2023-01-28T18:08:50.193Z,1.13
2023-01-28T18:11:19.841Z,1.12
2023-01-28T18:13:47.743Z,1.10
2023-01-28T18:16:19.303Z,1.13
2023-01-28T18:18:48.122Z,1.12
2023-01-28T18:21:46.552Z,1.14
2023-01-28T18:24:19.360Z,1.11
2023-01-28T18:26:47.131Z,1.11
2023-01-28T18:29:17.891Z,1.09
2023-01-28T18:31:45.761Z,1.08
2023-01-28T18:34:13.582Z,1.06
2023-01-28T18:36:41.485Z,1.05
2023-01-28T18:39:13.726Z,1.03
2023-01-28T18:41:42.107Z,1.05
2023-01-28T18:44:11.298Z,1.06
2023-01-28T18:46:39.094Z,1.06
2023-01-28T18:49:06.971Z,1.07
2023-01-28T18:51:34.715Z,1.05
2023-01-28T18:54:07.380Z,1.07
2023-01-28T18:56:36.625Z,1.05
2023-01-28T18:59:07.461Z,1.04
2023-01-28T19:01:35.840Z,1.01
2023-01-28T19:04:04.103Z,0.99
2023-01-28T19:06:33.321Z,1.02
2023-01-28T19:09:04.681Z,0.98
2023-01-28T19:11:32.425Z,0.95
2023-01-28T19:14:00.302Z,0.92
2023-01-28T19:16:28.580Z,0.91
2023-01-28T19:18:58.983Z,0.87
2023-01-28T19:21:28.105Z,0.83
2023-01-28T19:24:10.796Z,0.81
2023-01-28T19:26:40.548Z,0.77
2023-01-28T19:29:15.416Z,0.75
2023-01-28T19:31:44.231Z,0.70
2023-01-28T19:34:12.441Z,0.65
2023-01-28T19:36:40.346Z,0.64
2023-01-28T19:39:10.428Z,0.62
2023-01-28T19:41:38.404Z,0.60
2023-01-28T19:44:07.531Z,0.58
2023-01-28T19:46:37.253Z,0.59
2023-01-28T19:49:07.470Z,0.56
2023-01-28T19:51:35.525Z,0.56
2023-01-28T19:54:03.326Z,0.55
2023-01-28T19:56:31.744Z,0.54
2023-01-28T19:58:59.404Z,0.50
2023-01-28T20:01:30.372Z,0.51
2023-01-28T20:04:00.438Z,0.45
2023-01-28T20:06:30.774Z,0.43
2023-01-28T20:09:01.874Z,0.41
2023-01-28T20:11:30.034Z,0.35
2023-01-28T20:13:57.880Z,0.37
2023-01-28T20:16:30.290Z,0.36
2023-01-28T20:19:00.838Z,0.33
2023-01-28T20:21:30.685Z,0.29
2023-01-28T20:24:00.441Z,0.27
2023-01-28T20:26:34.404Z,0.26
2023-01-28T20:29:05.157Z,0.25
2023-01-28T20:31:34.527Z,0.22
2023-01-28T20:34:02.640Z,0.21
2023-01-28T20:36:30.461Z,0.17
2023-01-28T20:38:58.175Z,0.18
2023-01-28T20:41:27.362Z,0.20
2023-01-28T20:43:56.204Z,0.20
2023-01-28T20:46:26.662Z,0.20
2023-01-28T20:48:56.300Z,0.19
2023-01-28T20:51:27.119Z,0.17
2023-01-28T20:53:55.018Z,0.17
2023-01-28T20:56:25.315Z,0.15
2023-01-28T20:58:58.451Z,0.19
2023-01-28T21:01:29.456Z,0.17
2023-01-28T21:03:57.342Z,0.15
2023-01-28T21:06:25.806Z,0.12
2023-01-28T21:08:58.322Z,0.11
2023-01-28T21:11:27.732Z,0.16
2023-01-28T21:13:55.606Z,0.15
2023-01-28T21:16:23.863Z,0.15
2023-01-28T21:18:51.828Z,0.18
2023-01-28T21:21:28.594Z,0.22
2023-01-28T21:23:58.882Z,0.25
2023-01-28T21:26:27.059Z,0.27
2023-01-28T21:28:55.093Z,0.31
2023-01-28T21:31:26.590Z,0.39
2023-01-28T21:33:56.569Z,0.38
2023-01-28T21:36:25.871Z,0.39
2023-01-28T21:38:54.957Z,0.44
2023-01-28T21:41:23.115Z,0.37
2023-01-28T21:43:54.523Z,0.35
2023-01-28T21:46:23.841Z,0.31
2023-01-28T21:48:55.962Z,0.27
2023-01-28T21:51:59.456Z,0.26
2023-01-28T21:54:27.316Z,0.29
2023-01-28T21:56:56.210Z,0.26
2023-01-28T21:59:29.854Z,0.24
2023-01-28T22:02:02.112Z,0.19
2023-01-28T22:04:35.425Z,0.12
2023-01-28T22:07:04.589Z,0.11
2023-01-28T22:09:34.530Z,0.09
2023-01-28T22:12:09.956Z,0.10
2023-01-28T22:14:39.807Z,0.09
2023-01-28T22:17:10.143Z,0.08
2023-01-28T22:19:38.476Z,0.10
2023-01-28T22:22:07.324Z,0.08
2023-01-28T22:24:35.141Z,0.11
2023-01-28T22:27:02.888Z,0.15
2023-01-28T22:29:30.625Z,0.15
2023-01-28T22:31:58.348Z,0.15
2023-01-28T22:34:26.240Z,0.21
2023-01-28T22:36:54.128Z,0.17
2023-01-28T22:39:21.992Z,0.18
2023-01-28T22:41:49.800Z,0.20
2023-01-28T22:44:17.696Z,0.23
2023-01-28T22:46:45.446Z,0.21
2023-01-28T22:49:13.514Z,0.16
2023-01-28T22:51:41.228Z,0.17
2023-01-28T22:54:10.244Z,0.11
2023-01-28T22:56:37.950Z,0.11
2023-01-28T22:59:05.835Z,0.09
2023-01-28T23:01:34.012Z,0.09
2023-01-28T23:04:01.831Z,0.06
2023-01-28T23:06:29.704Z,0.03
2023-01-28T23:08:57.502Z,0.00
2023-01-28T23:11:28.898Z,0.00
2023-01-28T23:14:20.960Z,-0.03
2023-01-28T23:17:08.651Z,-0.03
2023-01-28T23:19:55.401Z,-0.06
2023-01-28T23:22:46.444Z,-0.07
2023-01-28T23:25:14.903Z,-0.05
2023-01-28T23:27:42.941Z,-0.06
2023-01-28T23:30:11.732Z,-0.06
2023-01-28T23:32:49.485Z,-0.08
2023-01-28T23:35:20.032Z,-0.08
2023-01-28T23:37:48.412Z,-0.09
2023-01-28T23:40:17.066Z,-0.11
2023-01-28T23:42:50.555Z,-0.13
2023-01-28T23:45:19.148Z,-0.15
2023-01-28T23:47:46.981Z,-0.12
2023-01-28T23:50:15.213Z,-0.15
2023-01-28T23:52:43.207Z,-0.12
2023-01-28T23:55:11.072Z,-0.13
2023-01-28T23:57:38.862Z,-0.09
